Time;durP1;ratioP1;P1;durP2;ratioP2;P2;SDS_P1;SDS_P2;PMS_P1;PMS_P2;Temp;Humidity;BMP_temperature;BMP_pressure;BME280_temperature;BME280_humidity;BME280_pressure;Samples;Min_cycle;Max_cycle;Signal;HPM_P1;HPM_P2
2023/11/25 00:00:55;;;;;;;6.25;1.35;;;;;;;-0.64;100.00;100000.06;7385760;19;20559;-40
2023/11/25 00:03:25;;;;;;;12.18;3.53;;;;;;;-0.56;100.00;100008.25;7363609;19;20190;-39
2023/11/25 00:05:57;;;;;;;13.93;2.90;;;;;;;-0.61;100.00;100007.00;7387680;19;20143;-40
2023/11/25 00:08:28;;;;;;;10.73;3.95;;;;;;;-0.54;100.00;99996.56;7364122;19;20196;-39
2023/11/25 00:10:58;;;;;;;11.93;3.28;;;;;;;-0.52;100.00;99992.47;7387749;19;20156;-42
2023/11/25 00:13:28;;;;;;;10.70;2.90;;;;;;;-0.57;100.00;99992.13;7363970;19;20194;-41
2023/11/25 00:15:58;;;;;;;6.72;1.20;;;;;;;-0.59;100.00;100002.94;7385944;19;20206;-41
2023/11/25 00:18:27;;;;;;;4.10;1.30;;;;;;;-0.67;100.00;100002.34;7364642;19;20678;-41
2023/11/25 00:21:00;;;;;;;7.28;1.15;;;;;;;-0.74;100.00;100002.66;7385912;19;20138;-41
2023/11/25 00:23:30;;;;;;;8.65;2.10;;;;;;;-0.80;100.00;100009.81;7364236;19;20194;-40
2023/11/25 00:25:59;;;;;;;8.98;1.27;;;;;;;-0.81;100.00;100006.41;7387117;19;20202;-41
2023/11/25 00:28:29;;;;;;;7.55;0.93;;;;;;;-0.76;100.00;100010.19;7363441;19;20219;-40
2023/11/25 00:30:58;;;;;;;4.05;1.73;;;;;;;-0.80;100.00;100010.69;7385693;19;20142;-40
2023/11/25 00:33:28;;;;;;;4.70;1.90;;;;;;;-0.86;100.00;100010.25;7363820;19;20594;-43
2023/11/25 00:36:00;;;;;;;6.63;1.30;;;;;;;-0.91;100.00;100014.06;7385883;19;20221;-42
2023/11/25 00:38:30;;;;;;;28.70;5.97;;;;;;;-0.91;100.00;100012.44;7363780;19;20253;-41
2023/11/25 00:41:00;;;;;;;2.58;0.75;;;;;;;-0.88;100.00;100014.31;7385589;19;20159;-40
2023/11/25 00:43:31;;;;;;;27.60;8.10;;;;;;;-0.98;100.00;100016.13;7362458;19;20218;-44
2023/11/25 00:46:02;;;;;;;4.30;1.15;;;;;;;-0.99;100.00;100014.38;7383768;19;20162;-40
2023/11/25 00:48:35;;;;;;;3.88;1.30;;;;;;;-1.00;100.00;100012.63;7361568;19;21720;-40
2023/11/25 00:51:08;;;;;;;26.67;9.52;;;;;;;-1.05;100.00;100020.59;7385303;19;20143;-41
2023/11/25 00:53:38;;;;;;;9.95;2.10;;;;;;;-1.12;100.00;100026.88;7364158;19;20182;-40
2023/11/25 00:56:09;;;;;;;14.70;2.28;;;;;;;-1.10;100.00;100038.88;7386368;19;20146;-40
2023/11/25 00:58:38;;;;;;;17.52;6.38;;;;;;;-1.08;100.00;100041.50;7363913;19;20213;-40
2023/11/25 01:01:08;;;;;;;3.53;1.00;;;;;;;-1.04;100.00;100048.59;7385421;19;20141;-40
2023/11/25 01:03:37;;;;;;;9.98;2.67;;;;;;;-1.04;100.00;100050.25;7363832;19;20202;-40
2023/11/25 01:06:13;;;;;;;7.88;1.83;;;;;;;-1.10;100.00;100056.59;7386322;19;20146;-40
2023/11/25 01:08:42;;;;;;;6.00;2.35;;;;;;;-1.16;100.00;100055.25;7363956;19;20731;-42
2023/11/25 01:11:12;;;;;;;6.43;2.00;;;;;;;-1.33;100.00;100047.25;7368121;19;20158;-40
2023/11/25 01:13:42;;;;;;;3.63;1.40;;;;;;;-1.46;100.00;100040.31;7390242;19;20134;-41
2023/11/25 01:16:18;;;;;;;35.38;7.82;;;;;;;-1.41;100.00;100040.66;7383169;19;20616;-39
2023/11/25 01:18:47;;;;;;;4.18;1.23;;;;;;;-1.52;100.00;100035.69;7391815;19;20229;-40
2023/11/25 01:21:19;;;;;;;7.63;1.30;;;;;;;-1.54;100.00;100032.13;7371322;19;20145;-40
2023/11/25 01:23:49;;;;;;;2.28;0.70;;;;;;;-1.51;100.00;100034.91;7389704;19;20146;-41
2023/11/25 01:26:19;;;;;;;4.18;1.30;;;;;;;-1.50;100.00;100033.25;7369051;19;20234;-40
2023/11/25 01:28:48;;;;;;;18.67;2.42;;;;;;;-1.43;100.00;100040.53;7389488;19;20246;-40
2023/11/25 01:31:18;;;;;;;11.13;2.35;;;;;;;-1.44;100.00;100048.03;7371141;19;20139;-40
2023/11/25 01:33:48;;;;;;;9.65;1.65;;;;;;;-1.32;100.00;100066.72;7390555;19;20170;-42
2023/11/25 01:36:21;;;;;;;6.90;1.60;;;;;;;-1.24;100.00;100070.72;7367488;19;20147;-40
2023/11/25 01:38:51;;;;;;;12.55;2.65;;;;;;;-1.29;100.00;100064.41;7388975;19;20174;-40
2023/11/25 01:41:21;;;;;;;19.20;4.88;;;;;;;-1.19;100.00;100065.16;7367913;19;20217;-40
2023/11/25 01:43:50;;;;;;;4.47;1.15;;;;;;;-1.43;100.00;100062.47;7392099;19;21571;-41
2023/11/25 01:46:33;;;;;;;12.60;1.10;;;;;;;-1.43;100.00;100050.66;7366296;19;20142;-40
2023/11/25 01:49:03;;;;;;;5.63;1.50;;;;;;;-1.38;100.00;100051.91;7389051;19;20901;-41
2023/11/25 01:51:37;;;;;;;12.60;1.88;;;;;;;-1.43;100.00;100045.59;7371076;19;22171;-41
2023/11/25 01:54:08;;;;;;;8.13;1.80;;;;;;;-1.37;100.00;100060.41;7389377;19;20146;-43
2023/11/25 01:56:38;;;;;;;9.05;2.00;;;;;;;-1.36;100.00;100059.63;7368269;19;20262;-42
2023/11/25 01:59:11;;;;;;;7.43;1.80;;;;;;;-1.33;100.00;100062.44;7391983;19;20175;-40
2023/11/25 02:01:40;;;;;;;10.90;2.85;;;;;;;-1.31;100.00;100054.94;7374527;19;20214;-42
2023/11/25 02:04:10;;;;;;;3.13;1.23;;;;;;;-1.42;100.00;100042.34;7398619;19;20141;-43
2023/11/25 02:06:43;;;;;;;25.95;7.13;;;;;;;-1.27;100.00;100047.69;7376797;19;20551;-40
2023/11/25 02:09:13;;;;;;;6.60;2.08;;;;;;;-1.26;100.00;100043.50;7394350;19;20230;-43
2023/11/25 02:11:55;;;;;;;8.70;2.22;;;;;;;-1.35;100.00;100028.50;7374350;19;20257;-40
2023/11/25 02:14:25;;;;;;;7.05;1.42;;;;;;;-1.31;100.00;100019.50;7395936;19;21664;-40
2023/11/25 02:16:55;;;;;;;20.90;5.78;;;;;;;-1.17;100.00;100028.16;7374878;19;20194;-40
2023/11/25 02:19:28;;;;;;;8.13;1.85;;;;;;;-1.24;100.00;100020.09;7395419;19;20193;-40
2023/11/25 02:22:01;;;;;;;18.85;6.00;;;;;;;-1.25;100.00;100015.78;7376776;19;20194;-43
2023/11/25 02:24:33;;;;;;;10.13;2.33;;;;;;;-1.32;100.00;100002.53;7395522;19;20139;-41
2023/11/25 02:27:04;;;;;;;6.15;1.70;;;;;;;-1.46;100.00;99999.81;7374065;19;20190;-42
2023/11/25 02:29:35;;;;;;;4.80;1.33;;;;;;;-1.45;100.00;99995.66;7397379;19;20177;-41
2023/11/25 02:32:06;;;;;;;5.88;1.63;;;;;;;-1.37;100.00;99994.59;7374620;19;20695;-41
2023/11/25 02:34:36;;;;;;;4.70;1.27;;;;;;;-1.40;100.00;99989.28;7396008;19;20624;-41
2023/11/25 02:37:07;;;;;;;4.82;1.10;;;;;;;-1.46;100.00;99976.16;7374375;19;20621;-43
2023/11/25 02:39:39;;;;;;;9.30;1.83;;;;;;;-1.45;100.00;99965.28;7395567;19;20170;-40
2023/11/25 02:42:09;;;;;;;4.53;1.10;;;;;;;-1.45;100.00;99965.28;7372671;19;20194;-41
2023/11/25 02:44:38;;;;;;;8.25;1.70;;;;;;;-1.40;100.00;99963.97;7395827;19;20236;-42
2023/11/25 02:47:08;;;;;;;9.82;2.55;;;;;;;-1.39;100.00;99956.50;7370969;19;20197;-40
2023/11/25 02:49:38;;;;;;;3.88;0.85;;;;;;;-1.40;100.00;99944.63;7389361;19;20249;-41
2023/11/25 02:52:08;;;;;;;11.52;1.77;;;;;;;-1.37;100.00;99938.91;7371898;19;20186;-41
2023/11/25 02:54:40;;;;;;;6.05;1.38;;;;;;;-1.29;100.00;99932.78;7395870;19;20549;-40
2023/11/25 02:57:11;;;;;;;4.10;1.30;;;;;;;-1.28;100.00;99937.06;7371292;19;20269;-40
2023/11/25 02:59:42;;;;;;;3.25;1.30;;;;;;;-1.25;100.00;99924.66;7395422;19;20181;-41
2023/11/25 03:02:13;;;;;;;10.43;1.40;;;;;;;-1.23;100.00;99922.25;7372263;19;20190;-42
2023/11/25 03:04:46;;;;;;;13.93;1.95;;;;;;;-1.17;100.00;99922.72;7395882;19;20143;-40
2023/11/25 03:07:18;;;;;;;5.28;0.70;;;;;;;-1.12;100.00;99912.94;7372106;19;20201;-41
2023/11/25 03:09:50;;;;;;;4.53;1.08;;;;;;;-1.22;100.00;99904.63;7394843;19;20170;-40
2023/11/25 03:12:20;;;;;;;5.22;1.60;;;;;;;-1.13;100.00;99904.44;7372011;19;20186;-42
2023/11/25 03:14:49;;;;;;;6.63;1.23;;;;;;;-1.09;100.00;99903.91;7395530;19;20238;-41
2023/11/25 03:17:19;;;;;;;2.55;0.90;;;;;;;-1.08;100.00;99897.19;7371628;19;20201;-40
2023/11/25 03:19:49;;;;;;;5.07;1.10;;;;;;;-1.04;100.00;99899.19;7395588;19;20206;-40
2023/11/25 03:22:18;;;;;;;19.05;5.30;;;;;;;-0.93;100.00;99899.97;7372385;19;20193;-42
2023/11/25 03:24:51;;;;;;;5.25;1.45;;;;;;;-1.02;100.00;99895.09;7397269;19;20163;-41
2023/11/25 03:27:20;;;;;;;2.30;0.90;;;;;;;-1.03;100.00;99892.47;7371658;19;20639;-41
2023/11/25 03:29:50;;;;;;;3.92;2.10;;;;;;;-1.03;100.00;99889.94;7394443;19;20178;-41
2023/11/25 03:32:20;;;;;;;5.28;1.35;;;;;;;-1.02;100.00;99882.44;7372920;19;20249;-40
2023/11/25 03:34:50;;;;;;;6.07;0.85;;;;;;;-1.01;100.00;99879.16;7393073;19;20159;-40
2023/11/25 03:37:19;;;;;;;3.78;0.70;;;;;;;-0.99;100.00;99874.19;7371061;19;20269;-40
2023/11/25 03:39:51;;;;;;;8.15;1.48;;;;;;;-0.94;100.00;99869.47;7394241;19;20182;-39
2023/11/25 03:42:23;;;;;;;3.55;0.85;;;;;;;-0.92;100.00;99868.78;7371601;19;20295;-45
2023/11/25 03:44:52;;;;;;;8.93;2.45;;;;;;;-0.87;100.00;99856.50;7394551;19;20615;-40
2023/11/25 03:47:22;;;;;;;4.30;1.75;;;;;;;-0.88;100.00;99854.75;7370566;19;20197;-41
2023/11/25 03:49:52;;;;;;;3.50;0.98;;;;;;;-0.82;100.00;99850.97;7393983;19;20187;-43
2023/11/25 03:52:22;;;;;;;4.32;1.00;;;;;;;-0.78;100.00;99856.28;7370796;19;20198;-40
2023/11/25 03:54:54;;;;;;;12.38;2.03;;;;;;;-0.74;100.00;99864.22;7394661;19;20147;-40
2023/11/25 03:57:24;;;;;;;8.07;2.20;;;;;;;-0.57;100.00;99903.44;7370460;19;20204;-43
2023/11/25 03:59:53;;;;;;;6.43;1.75;;;;;;;-0.40;100.00;99936.75;7393435;19;20177;-41
2023/11/25 04:02:23;;;;;;;23.38;6.40;;;;;;;-0.39;100.00;99932.53;7370398;19;20299;-42
2023/11/25 04:04:53;;;;;;;9.65;1.08;;;;;;;-0.50;100.00;99920.00;7394352;19;20167;-40
2023/11/25 04:07:22;;;;;;;12.63;3.08;;;;;;;-0.48;100.00;99908.28;7371399;19;20226;-40
2023/11/25 04:09:54;;;;;;;5.22;1.48;;;;;;;-0.50;100.00;99909.84;7393522;19;20186;-41
2023/11/25 04:12:24;;;;;;;9.73;1.50;;;;;;;-0.46;100.00;99913.50;7371101;19;20628;-41
2023/11/25 04:14:54;;;;;;;2.55;0.70;;;;;;;-0.47;100.00;99919.34;7394132;19;20149;-40
2023/11/25 04:17:23;;;;;;;8.43;1.35;;;;;;;-0.45;100.00;99928.78;7370427;19;20202;-39
2023/11/25 04:19:53;;;;;;;4.05;0.82;;;;;;;-0.48;100.00;99935.28;7392186;19;20663;-39
2023/11/25 04:22:23;;;;;;;6.97;1.20;;;;;;;-0.48;100.00;99946.31;7370771;19;20224;-41
2023/11/25 04:24:56;;;;;;;5.20;0.80;;;;;;;-0.49;100.00;99944.56;7394010;19;20503;-41
2023/11/25 04:27:29;;;;;;;5.32;1.25;;;;;;;-0.49;100.00;99959.78;7370225;19;20282;-41
2023/11/25 04:29:59;;;;;;;3.38;1.40;;;;;;;-0.48;100.00;99968.22;7392920;19;20243;-41
2023/11/25 04:32:29;;;;;;;4.07;1.25;;;;;;;-0.38;100.00;99979.94;7369853;19;20202;-41
2023/11/25 04:34:59;;;;;;;8.45;0.60;;;;;;;-0.37;100.00;99972.44;7393999;19;20171;-40
2023/11/25 04:37:28;;;;;;;3.00;1.08;;;;;;;-0.39;100.00;99968.03;7370909;19;20204;-42
2023/11/25 04:40:01;;;;;;;5.88;1.95;;;;;;;-0.32;100.00;99993.06;7392145;19;20447;-39
2023/11/25 04:42:30;;;;;;;12.55;2.35;;;;;;;-0.31;100.00;100017.66;7369824;19;20206;-41
2023/11/25 04:45:00;;;;;;;7.40;2.10;;;;;;;-0.29;100.00;100038.94;7393097;19;20619;-44
2023/11/25 04:47:30;;;;;;;6.30;1.55;;;;;;;-0.25;100.00;100063.75;7369238;19;20197;-41
2023/11/25 04:49:59;;;;;;;13.52;2.58;;;;;;;-0.15;100.00;100096.63;7392922;19;20178;-41
2023/11/25 04:52:29;;;;;;;6.80;2.03;;;;;;;-0.14;100.00;100141.50;7369264;19;20198;-40
2023/11/25 04:55:01;;;;;;;10.68;2.20;;;;;;;-0.14;100.00;100174.47;7393579;19;20435;-40
2023/11/25 04:57:31;;;;;;;7.80;1.13;;;;;;;-0.17;100.00;100194.53;7365311;19;20198;-39
2023/11/25 05:00:02;;;;;;;5.07;1.35;;;;;;;-0.21;100.00;100212.81;7391693;19;20726;-40
2023/11/25 05:02:32;;;;;;;3.72;1.10;;;;;;;-0.28;100.00;100244.44;7368498;19;20194;-41
2023/11/25 05:04:59;;;;;;;4.07;0.98;;;;;;;-0.20;100.00;100295.72;7394264;19;20163;-40
2023/11/25 05:07:28;;;;;;;7.97;1.20;;;;;;;-0.14;100.00;100319.03;7368790;19;20198;-40
2023/11/25 05:10:01;;;;;;;3.60;0.80;;;;;;;-0.12;100.00;100338.56;7391500;19;20923;-40
2023/11/25 05:12:30;;;;;;;3.90;0.80;;;;;;;-0.10;100.00;100368.34;7368725;19;20200;-40
2023/11/25 05:15:00;;;;;;;7.43;1.05;;;;;;;-0.01;100.00;100391.00;7392628;19;20140;-41
2023/11/25 05:17:30;;;;;;;5.13;1.85;;;;;;;0.10;100.00;100402.88;7367706;19;20200;-41
2023/11/25 05:20:00;;;;;;;5.85;1.17;;;;;;;0.12;100.00;100423.31;7392200;19;20188;-42
2023/11/25 05:22:30;;;;;;;4.38;1.00;;;;;;;0.13;100.00;100448.81;7368370;19;20186;-40
2023/11/25 05:25:02;;;;;;;6.45;1.33;;;;;;;0.27;100.00;100461.69;7392286;19;20138;-39
2023/11/25 05:27:31;;;;;;;5.03;1.05;;;;;;;0.26;100.00;100455.72;7368660;19;20610;-40
2023/11/25 05:30:01;;;;;;;6.07;1.00;;;;;;;0.35;100.00;100458.09;7390821;19;20186;-40
2023/11/25 05:32:31;;;;;;;12.30;1.40;;;;;;;0.38;100.00;100476.13;7368261;19;20202;-39
2023/11/25 05:35:00;;;;;;;21.53;7.50;;;;;;;0.45;100.00;100471.53;7391972;19;20411;-41
2023/11/25 05:37:30;;;;;;;8.52;1.98;;;;;;;0.48;100.00;100461.59;7367194;19;21222;-41
2023/11/25 05:40:05;;;;;;;20.43;5.13;;;;;;;0.53;100.00;100466.25;7391135;19;20178;-40
2023/11/25 05:42:37;;;;;;;3.53;1.37;;;;;;;0.42;100.00;100454.41;7368378;19;20525;-39
2023/11/25 05:45:09;;;;;;;6.38;1.40;;;;;;;0.36;100.00;100449.72;7392000;19;20407;-40
2023/11/25 05:47:38;;;;;;;30.38;6.15;;;;;;;0.42;100.00;100443.34;7366484;19;20199;-42
2023/11/25 05:50:10;;;;;;;4.93;1.30;;;;;;;0.30;100.00;100443.28;7391166;19;20174;-40
2023/11/25 05:52:40;;;;;;;4.15;1.25;;;;;;;0.23;100.00;100442.81;7367820;19;20415;-39
2023/11/25 05:55:14;;;;;;;14.82;3.28;;;;;;;0.32;100.00;100456.97;7389611;19;20227;-39
2023/11/25 05:57:45;;;;;;;1.70;0.90;;;;;;;0.22;100.00;100468.06;7366758;19;20194;-40
2023/11/25 06:00:16;;;;;;;11.43;2.40;;;;;;;0.29;100.00;100462.69;7396548;19;20279;-40
2023/11/25 06:02:46;;;;;;;7.22;1.30;;;;;;;0.28;100.00;100462.56;7374685;19;20206;-39
2023/11/25 06:05:16;;;;;;;17.73;5.85;;;;;;;0.43;100.00;100468.84;7396743;19;20139;-41
2023/11/25 06:07:45;;;;;;;14.73;3.42;;;;;;;0.39;100.00;100467.72;7374659;19;20205;-39
2023/11/25 06:10:18;;;;;;;7.90;1.40;;;;;;;0.35;100.00;100465.72;7395286;19;20175;-40
2023/11/25 06:12:48;;;;;;;11.23;1.93;;;;;;;0.40;100.00;100466.97;7375113;19;20258;-40
2023/11/25 06:15:19;;;;;;;7.53;1.60;;;;;;;0.34;100.00;100466.47;7399420;19;20739;-40
2023/11/25 06:17:50;;;;;;;7.93;1.80;;;;;;;0.33;100.00;100474.88;7372865;19;20434;-40
2023/11/25 06:20:22;;;;;;;5.33;1.70;;;;;;;0.38;100.00;100465.97;7396246;19;20555;-40
2023/11/25 06:22:52;;;;;;;9.80;1.00;;;;;;;0.35;100.00;100458.09;7373917;19;20950;-42
2023/11/25 06:25:26;;;;;;;11.50;1.13;;;;;;;0.24;100.00;100459.81;7396443;19;20414;-39
2023/11/25 06:27:55;;;;;;;5.90;1.40;;;;;;;0.33;100.00;100451.13;7369026;19;20427;-40
2023/11/25 06:30:25;;;;;;;12.40;2.20;;;;;;;0.32;100.00;100447.72;7395953;19;20455;-40
2023/11/25 06:32:55;;;;;;;12.27;2.03;;;;;;;0.30;100.00;100449.22;7374057;19;20445;-40
2023/11/25 06:35:26;;;;;;;10.07;1.65;;;;;;;0.32;100.00;100449.34;7396514;19;20139;-41
2023/11/25 06:37:56;;;;;;;7.93;1.50;;;;;;;0.37;100.00;100456.56;7373189;19;20202;-40
2023/11/25 06:40:28;;;;;;;11.57;3.20;;;;;;;0.40;100.00;100459.34;7394886;19;20450;-40
2023/11/25 06:42:58;;;;;;;4.38;1.08;;;;;;;0.29;100.00;100465.22;7374130;19;20414;-41
2023/11/25 06:45:27;;;;;;;7.85;1.73;;;;;;;0.33;100.00;100459.63;7396627;19;20176;-40
2023/11/25 06:47:57;;;;;;;3.92;1.30;;;;;;;0.23;100.00;100464.75;7371540;19;20234;-41
2023/11/25 06:50:27;;;;;;;3.05;1.25;;;;;;;0.27;100.00;100464.22;7396108;19;20171;-40
2023/11/25 06:52:56;;;;;;;16.70;2.00;;;;;;;0.26;100.00;100480.22;7373960;19;20261;-40
2023/11/25 06:55:28;;;;;;;3.07;1.47;;;;;;;0.32;100.00;100480.72;7395382;19;20210;-40
2023/11/25 06:57:58;;;;;;;16.25;1.88;;;;;;;0.34;100.00;100478.28;7373102;19;20427;-41
2023/11/25 07:00:28;;;;;;;11.40;2.33;;;;;;;0.35;100.00;100470.78;7395238;19;20178;-40
2023/11/25 07:02:57;;;;;;;3.20;1.33;;;;;;;0.29;100.00;100465.22;7373409;19;20186;-41
2023/11/25 07:05:27;;;;;;;7.00;1.65;;;;;;;0.30;100.00;100467.00;7395814;19;20428;-41
2023/11/25 07:07:57;;;;;;;15.97;2.07;;;;;;;0.32;100.00;100465.50;7372944;19;20215;-41
2023/11/25 07:10:34;;;;;;;4.32;1.58;;;;;;;0.28;100.00;100462.56;7392144;19;20527;-41
2023/11/25 07:13:04;;;;;;;8.05;2.00;;;;;;;0.29;100.00;100462.69;7373349;19;20193;-41
2023/11/25 07:15:34;;;;;;;9.23;1.83;;;;;;;0.27;100.00;100461.69;7396132;19;20833;-40
2023/11/25 07:18:06;;;;;;;8.40;2.00;;;;;;;0.28;100.00;100458.38;7373187;19;20633;-40
2023/11/25 07:20:36;;;;;;;7.85;2.33;;;;;;;0.35;100.00;100459.72;7395266;19;20250;-40
2023/11/25 07:23:05;;;;;;;6.95;1.48;;;;;;;0.39;100.00;100457.56;7373133;19;20273;-39
2023/11/25 07:25:38;;;;;;;9.70;2.47;;;;;;;0.47;100.00;100462.38;7397453;19;20251;-39
2023/11/25 07:28:09;;;;;;;4.38;1.40;;;;;;;0.46;100.00;100453.84;7373089;19;20426;-40
2023/11/25 07:30:41;;;;;;;6.30;1.95;;;;;;;0.49;100.00;100465.91;7394380;19;20177;-42
2023/11/25 07:33:11;;;;;;;11.25;2.10;;;;;;;0.52;100.00;100466.16;7372194;19;20710;-42
2023/11/25 07:35:41;;;;;;;6.07;1.80;;;;;;;0.68;100.00;100458.06;7395441;19;20549;-41
2023/11/25 07:38:11;;;;;;;2.60;1.20;;;;;;;0.67;100.00;100458.84;7371592;19;20200;-42
2023/11/25 07:40:44;;;;;;;3.73;1.43;;;;;;;0.77;100.00;100460.41;7394302;19;20443;-40
2023/11/25 07:43:15;;;;;;;5.57;1.30;;;;;;;0.72;100.00;100466.78;7371604;19;20447;-39
2023/11/25 07:45:45;;;;;;;12.33;3.40;;;;;;;0.85;100.00;100461.88;7395146;19;20806;-40
2023/11/25 07:48:15;;;;;;;6.90;1.73;;;;;;;0.81;100.00;100470.03;7370511;19;20427;-40
2023/11/25 07:50:45;;;;;;;6.80;2.28;;;;;;;0.78;100.00;100468.13;7394466;19;20434;-42
2023/11/25 07:53:22;;;;;;;16.00;1.53;;;;;;;0.86;100.00;100475.47;7372303;19;20193;-40
2023/11/25 07:55:55;;;;;;;5.77;1.90;;;;;;;0.89;100.00;100471.50;7395222;19;20422;-40
2023/11/25 07:58:25;;;;;;;3.30;1.13;;;;;;;0.98;100.00;100481.50;7372357;19;20442;-40
2023/11/25 08:00:55;;;;;;;12.30;5.60;;;;;;;0.96;100.00;100477.06;7394814;19;20404;-43
2023/11/25 08:03:24;;;;;;;9.67;3.47;;;;;;;1.08;100.00;100470.38;7372295;19;20412;-41
2023/11/25 08:05:55;;;;;;;9.43;2.10;;;;;;;1.09;100.00;100474.69;7394721;19;20431;-43
2023/11/25 08:08:27;;;;;;;7.03;2.00;;;;;;;1.05;100.00;100472.66;7371509;19;20844;-41
2023/11/25 08:10:59;;;;;;;9.40;2.87;;;;;;;1.01;100.00;100480.81;7393825;19;20407;-43
2023/11/25 08:13:29;;;;;;;6.50;1.57;;;;;;;0.99;100.00;100478.19;7371562;19;20426;-40
2023/11/25 08:15:59;;;;;;;8.57;3.10;;;;;;;1.23;100.00;100477.38;7394681;19;20407;-40
2023/11/25 08:18:28;;;;;;;5.17;2.07;;;;;;;1.06;100.00;100482.06;7371188;19;20437;-41
2023/11/25 08:20:58;;;;;;;4.13;1.20;;;;;;;1.07;100.00;100482.19;7395025;19;20459;-40
2023/11/25 08:23:28;;;;;;;3.67;1.40;;;;;;;1.14;100.00;100482.63;7371319;19;20448;-41
2023/11/25 08:26:00;;;;;;;10.03;1.80;;;;;;;1.15;100.00;100482.75;7394491;19;20414;-40
2023/11/25 08:28:30;;;;;;;5.50;1.63;;;;;;;1.23;100.00;100474.81;7370825;19;20422;-40
2023/11/25 08:30:59;;;;;;;7.40;2.40;;;;;;;1.31;100.00;100468.63;7393264;19;20431;-40
2023/11/25 08:33:29;;;;;;;5.40;1.93;;;;;;;1.26;100.00;100467.41;7370292;19;20503;-41
2023/11/25 08:35:58;;;;;;;6.70;1.83;;;;;;;1.29;100.00;100468.53;7388579;19;20396;-42
2023/11/25 08:38:28;;;;;;;9.67;1.63;;;;;;;1.25;100.00;100461.47;7370373;19;20431;-43
2023/11/25 08:41:01;;;;;;;2.53;1.30;;;;;;;1.25;100.00;100465.66;7393559;19;20420;-44
2023/11/25 08:43:32;;;;;;;13.53;4.13;;;;;;;1.31;100.00;100461.03;7370824;19;20414;-42
2023/11/25 08:46:03;;;;;;;11.47;4.20;;;;;;;1.37;100.00;100456.38;7393401;19;20407;-40
2023/11/25 08:48:33;;;;;;;10.50;2.50;;;;;;;1.32;100.00;100453.50;7370161;19;20444;-40
2023/11/25 08:51:05;;;;;;;10.20;1.93;;;;;;;1.51;100.00;100456.50;7393064;19;20474;-43
2023/11/25 08:53:37;;;;;;;6.33;2.30;;;;;;;1.47;100.00;100447.78;7370006;19;20814;-41
2023/11/25 08:56:10;;;;;;;16.33;4.40;;;;;;;1.46;100.00;100456.19;7393080;19;20408;-40
2023/11/25 08:58:40;;;;;;;8.70;1.27;;;;;;;1.38;100.00;100447.97;7371278;19;20530;-39
2023/11/25 09:01:11;;;;;;;4.07;1.53;;;;;;;1.45;100.00;100449.34;7385105;19;20410;-41
2023/11/25 09:03:41;;;;;;;4.23;1.20;;;;;;;1.52;100.00;100455.75;7363883;19;20865;-41
2023/11/25 09:06:12;;;;;;;3.40;1.37;;;;;;;1.50;100.00;100462.38;7385831;19;20419;-40
2023/11/25 09:08:41;;;;;;;9.77;3.57;;;;;;;1.58;100.00;100453.63;7363326;19;20764;-41
2023/11/25 09:11:14;;;;;;;9.27;2.77;;;;;;;1.64;100.00;100455.78;7377770;19;20411;-41
2023/11/25 09:13:43;;;;;;;3.77;1.17;;;;;;;1.70;100.00;100456.22;7385504;19;20407;-41
2023/11/25 09:16:13;;;;;;;3.67;2.00;;;;;;;1.74;100.00;100459.09;7363622;19;20951;-40
2023/11/25 09:18:43;;;;;;;5.87;1.60;;;;;;;1.81;100.00;100467.16;7382782;19;20406;-42
2023/11/25 09:21:13;;;;;;;10.70;1.87;;;;;;;1.74;100.00;100458.19;7363008;19;20403;-40
2023/11/25 09:23:43;;;;;;;7.20;2.33;;;;;;;1.69;100.00;100442.59;7384402;19;20415;-40
2023/11/25 09:26:15;;;;;;;8.90;1.93;;;;;;;1.77;100.00;100437.16;7365236;19;21144;-39
2023/11/25 09:28:45;;;;;;;23.57;6.83;;;;;;;1.70;100.00;100436.72;7383753;19;20927;-40
2023/11/25 09:31:14;;;;;;;12.50;2.17;;;;;;;1.78;100.00;100431.34;7360325;19;20397;-40
2023/11/25 09:33:44;;;;;;;13.30;2.80;;;;;;;1.84;100.00;100439.41;7384468;19;20831;-41
2023/11/25 09:36:13;;;;;;;11.33;3.07;;;;;;;1.89;100.00;100430.41;7367175;19;20415;-41
2023/11/25 09:38:43;;;;;;;6.60;2.07;;;;;;;1.83;100.00;100422.34;7387777;19;20470;-40
2023/11/25 09:41:15;;;;;;;10.13;2.80;;;;;;;2.00;100.00;100423.56;7368745;19;20446;-40
2023/11/25 09:43:45;;;;;;;17.63;3.30;;;;;;;2.07;100.00;100413.03;7389124;19;20469;-40
2023/11/25 09:46:16;;;;;;;12.03;4.10;;;;;;;2.11;100.00;100412.47;7363626;19;20422;-40
2023/11/25 09:48:45;;;;;;;8.60;2.00;;;;;;;2.16;100.00;100400.94;7388075;19;20496;-42
2023/11/25 09:51:16;;;;;;;13.23;1.93;;;;;;;2.22;100.00;100397.06;7363217;19;21049;-40
2023/11/25 09:53:45;;;;;;;7.03;2.03;;;;;;;2.22;100.00;100380.16;7388217;19;20418;-42
2023/11/25 09:56:19;;;;;;;12.67;2.30;;;;;;;2.19;100.00;100362.09;7367096;19;20415;-41
2023/11/25 09:58:48;;;;;;;13.47;3.80;;;;;;;2.41;100.00;100348.31;7388477;19;21219;-40
2023/11/25 10:01:18;;;;;;;19.87;6.20;;;;;;;2.38;100.00;100330.25;7366981;19;20419;-40
2023/11/25 10:03:50;;;;;;;12.03;2.37;;;;;;;2.32;100.00;100301.84;7389114;19;20411;-40
2023/11/25 10:06:20;;;;;;;9.37;2.33;;;;;;;2.37;100.00;100297.94;7370005;19;20478;-41
2023/11/25 10:08:49;;;;;;;14.30;3.50;;;;;;;2.35;100.00;100294.41;7388738;19;20423;-44
2023/11/25 10:11:23;;;;;;;6.00;2.43;;;;;;;2.38;100.00;100267.50;7366730;19;20411;-41
2023/11/25 10:13:52;;;;;;;6.47;1.70;;;;;;;2.49;100.00;100252.03;7389175;19;20408;-41
2023/11/25 10:16:28;;;;;;;12.00;3.83;;;;;;;2.62;100.00;100238.44;7367969;19;20403;-42
2023/11/25 10:18:58;;;;;;;6.50;1.47;;;;;;;2.68;100.00;100231.22;7387748;19;21141;-40
2023/11/25 10:21:28;;;;;;;7.90;2.97;;;;;;;2.78;100.00;100212.31;7367815;19;20413;-41
2023/11/25 10:24:08;;;;;;;3.43;1.73;;;;;;;2.79;100.00;100199.66;7388896;19;20506;-40
2023/11/25 10:26:43;;;;;;;8.00;2.77;;;;;;;2.78;100.00;100167.31;7366775;19;21073;-40
2023/11/25 10:29:15;;;;;;;29.57;7.93;;;;;;;2.78;100.00;100153.69;7388692;19;20787;-41
2023/11/25 10:31:46;;;;;;;5.50;1.30;;;;;;;2.75;100.00;100131.44;7366735;19;20419;-40
2023/11/25 10:34:16;;;;;;;5.20;2.13;;;;;;;2.78;100.00;100111.25;7387181;19;20395;-41
2023/11/25 10:36:47;;;;;;;12.80;3.60;;;;;;;2.78;100.00;100090.88;7367431;19;20438;-42
2023/11/25 10:39:17;;;;;;;4.90;1.20;;;;;;;2.84;100.00;100086.16;7388306;19;20439;-42
2023/11/25 10:41:54;;;;;;;45.23;12.83;;;;;;;2.91;100.00;100073.78;7367371;19;20427;-41
2023/11/25 10:44:24;;;;;;;7.87;2.40;;;;;;;2.94;100.00;100048.50;7389561;19;20667;-41
2023/11/25 10:46:56;;;;;;;33.77;10.43;;;;;;;2.97;100.00;100048.69;7364040;19;20447;-41
2023/11/25 10:49:25;;;;;;;9.97;2.27;;;;;;;3.01;100.00;100037.91;7387793;19;20431;-42
2023/11/25 10:51:55;;;;;;;34.83;11.53;;;;;;;3.05;100.00;100028.75;7364615;19;20886;-40
2023/11/25 10:54:28;;;;;;;5.10;1.40;;;;;;;3.18;100.00;100020.19;7387521;19;20419;-43
2023/11/25 10:57:05;;;;;;;12.90;4.00;;;;;;;3.22;100.00;100009.38;7366584;19;20510;-41
2023/11/25 10:59:35;;;;;;;10.13;1.80;;;;;;;3.26;100.00;100003.69;7388550;19;20443;-41
2023/11/25 11:02:08;;;;;;;14.30;6.50;;;;;;;3.33;100.00;99995.59;7366065;19;20415;-41
2023/11/25 11:04:41;;;;;;;30.07;8.30;;;;;;;3.32;100.00;99993.84;7387611;19;20416;-41
2023/11/25 11:07:15;;;;;;;15.43;4.80;;;;;;;3.29;100.00;99983.47;7367910;19;20427;-42
2023/11/25 11:09:45;;;;;;;23.33;6.43;;;;;;;3.26;100.00;99988.38;7387561;19;20450;-41
2023/11/25 11:12:22;;;;;;;4.43;1.20;;;;;;;3.31;100.00;99986.09;7366584;19;20506;-40
2023/11/25 11:14:58;;;;;;;9.83;2.20;;;;;;;3.44;100.00;99977.50;7387989;19;21577;-42
2023/11/25 11:17:35;;;;;;;23.67;6.60;;;;;;;3.52;100.00;99971.16;7366146;19;20510;-44
2023/11/25 11:20:11;;;;;;;6.93;1.70;;;;;;;3.50;100.00;99972.75;7387043;19;20865;-40
2023/11/25 11:22:43;;;;;;;9.63;2.33;;;;;;;3.39;100.00;99961.94;7365812;19;20490;-40
2023/11/25 11:25:18;;;;;;;7.83;2.10;;;;;;;3.43;100.00;99971.50;7387480;19;20403;-41
2023/11/25 11:27:56;;;;;;;9.77;1.80;;;;;;;3.33;100.00;99962.44;7366242;19;20447;-42
2023/11/25 11:30:31;;;;;;;8.60;1.60;;;;;;;3.33;100.00;99962.44;7387562;19;20466;-41
2023/11/25 11:33:01;;;;;;;3.73;1.40;;;;;;;3.24;100.00;99965.34;7364524;19;20505;-40
2023/11/25 11:35:49;;;;;;;6.80;2.30;;;;;;;3.34;100.00;99966.75;7388293;19;20407;-42
2023/11/25 11:38:26;;;;;;;15.23;3.60;;;;;;;3.53;100.00;99969.50;7365747;19;20423;-41